Time;durP1;ratioP1;P1;durP2;ratioP2;P2;SDS_P1;SDS_P2;PMS_P1;PMS_P2;Temp;Humidity;BMP_temperature;BMP_pressure;BME280_temperature;BME280_humidity;BME280_pressure;Samples;Min_cycle;Max_cycle;Signal;HPM_P1;HPM_P2
2023/01/30 00:01:30;;;;;;;42.95;27.00;;;3.50;99.90;;;;;;4997903;28;20041;-58
2023/01/30 00:03:57;;;;;;;43.40;27.13;;;3.50;99.90;;;;;;5000028;28;20018;-61
2023/01/30 00:06:23;;;;;;;43.47;26.15;;;3.50;99.90;;;;;;4998473;28;20400;-57
2023/01/30 00:08:49;;;;;;;42.63;24.65;;;3.50;99.90;;;;;;4998899;28;20029;-59
2023/01/30 00:11:18;;;;;;;49.70;27.58;;;3.50;99.90;;;;;;4997890;28;20022;-59
2023/01/30 00:13:44;;;;;;;38.22;25.40;;;3.50;99.90;;;;;;4998849;28;20022;-59
2023/01/30 00:16:10;;;;;;;45.35;26.77;;;3.60;99.90;;;;;;4999426;28;20116;-61
2023/01/30 00:18:37;;;;;;;42.28;25.83;;;3.60;99.90;;;;;;4998623;28;20052;-58
2023/01/30 00:21:05;;;;;;;40.03;25.15;;;3.60;99.90;;;;;;4997626;28;20030;-58
2023/01/30 00:23:33;;;;;;;49.20;26.48;;;3.70;99.90;;;;;;4998991;28;20512;-59
2023/01/30 00:25:59;;;;;;;42.05;25.73;;;3.70;99.90;;;;;;4998164;28;20104;-58
2023/01/30 00:28:25;;;;;;;43.83;27.63;;;3.70;99.90;;;;;;4997881;28;20112;-59
2023/01/30 00:30:52;;;;;;;40.38;26.42;;;3.60;99.90;;;;;;4998736;28;20022;-57
2023/01/30 00:33:18;;;;;;;38.90;25.00;;;3.70;99.90;;;;;;4997277;28;20023;-60
2023/01/30 00:35:44;;;;;;;44.28;26.40;;;3.70;99.90;;;;;;4998165;28;20034;-61
2023/01/30 00:38:10;;;;;;;40.22;25.92;;;3.70;99.90;;;;;;4996803;28;20498;-61
2023/01/30 00:40:35;;;;;;;43.05;26.60;;;3.70;99.90;;;;;;4997962;28;20109;-59
2023/01/30 00:48:31;;;;;;;39.35;25.30;;;3.80;99.90;;;;;;4997645;28;20052;-61
2023/01/30 00:50:56;;;;;;;42.30;25.45;;;3.80;99.90;;;;;;4998453;28;20500;-58
2023/01/30 00:53:22;;;;;;;41.03;26.58;;;3.80;99.90;;;;;;4997149;28;20124;-61
2023/01/30 00:55:50;;;;;;;39.28;24.58;;;3.90;99.90;;;;;;4997215;28;20578;-58
2023/01/30 00:58:16;;;;;;;40.83;26.33;;;3.80;99.90;;;;;;4996684;28;20031;-59
2023/01/30 01:00:41;;;;;;;39.13;24.60;;;3.90;99.90;;;;;;4995440;28;20026;-56
2023/01/30 01:03:07;;;;;;;41.03;24.80;;;3.90;99.90;;;;;;4997308;28;20026;-60
2023/01/30 01:05:33;;;;;;;46.58;26.00;;;3.90;99.90;;;;;;4999064;28;20029;-59
2023/01/30 01:07:59;;;;;;;41.75;26.05;;;3.90;99.90;;;;;;4996385;28;20400;-58
2023/01/30 01:10:24;;;;;;;43.10;26.52;;;4.00;99.90;;;;;;4999355;28;20056;-60
2023/01/30 01:12:53;;;;;;;40.42;23.95;;;4.00;99.90;;;;;;4997989;28;20034;-58
2023/01/30 01:15:20;;;;;;;47.17;28.20;;;4.00;99.90;;;;;;4996286;28;20511;-59
2023/01/30 01:17:46;;;;;;;45.65;26.30;;;4.00;99.90;;;;;;4992966;28;20117;-59
2023/01/30 01:20:12;;;;;;;43.80;26.98;;;4.00;99.90;;;;;;4995798;28;20496;-59
2023/01/30 01:22:38;;;;;;;43.97;25.52;;;4.00;99.90;;;;;;4997890;28;20504;-60
2023/01/30 01:25:04;;;;;;;41.83;25.80;;;4.00;99.90;;;;;;4997612;28;20034;-59
2023/01/30 01:27:30;;;;;;;43.13;25.88;;;4.00;99.90;;;;;;4996470;28;20034;-57
2023/01/30 01:29:55;;;;;;;41.67;25.73;;;4.00;99.90;;;;;;4995809;28;20050;-60
2023/01/30 01:32:21;;;;;;;37.60;24.02;;;4.10;99.90;;;;;;4999313;28;20539;-58
2023/01/30 01:34:47;;;;;;;41.83;25.98;;;4.10;99.90;;;;;;4997598;28;20252;-58
2023/01/30 01:37:13;;;;;;;42.25;25.27;;;4.10;99.90;;;;;;4998254;28;20101;-60
2023/01/30 01:42:29;;;;;;;42.35;25.58;;;4.20;99.90;;;;;;4997248;28;20116;-60
2023/01/30 01:45:03;;;;;;;41.13;25.95;;;4.20;99.90;;;;;;4998676;28;20148;-59
2023/01/30 01:47:31;;;;;;;35.95;23.55;;;4.20;99.90;;;;;;4995800;28;20138;-57
2023/01/30 01:49:57;;;;;;;35.33;22.55;;;4.20;99.90;;;;;;4997769;28;20041;-58
2023/01/30 01:52:22;;;;;;;38.92;24.85;;;4.20;99.90;;;;;;4998222;28;20109;-61
2023/01/30 01:54:59;;;;;;;35.08;23.40;;;4.20;99.90;;;;;;4997506;28;20030;-55
2023/01/30 01:57:30;;;;;;;40.88;23.52;;;4.30;99.90;;;;;;5000215;28;20495;-60
2023/01/30 02:00:14;;;;;;;42.38;23.73;;;4.30;99.90;;;;;;4999474;28;20041;-57
2023/01/30 02:02:43;;;;;;;39.42;23.88;;;4.30;99.90;;;;;;4999923;28;20026;-58
2023/01/30 02:05:11;;;;;;;35.28;22.85;;;4.30;99.90;;;;;;4999928;28;20511;-58
2023/01/30 02:07:44;;;;;;;35.03;22.92;;;4.30;99.90;;;;;;4999842;28;20033;-59
2023/01/30 02:10:15;;;;;;;38.67;22.98;;;4.40;99.90;;;;;;5001327;28;20140;-59
2023/01/30 02:12:42;;;;;;;35.72;22.55;;;4.40;99.90;;;;;;5000554;28;20067;-59
2023/01/30 02:15:08;;;;;;;36.03;22.95;;;4.40;99.90;;;;;;4999400;28;20532;-56
2023/01/30 02:17:34;;;;;;;32.00;21.55;;;4.40;99.90;;;;;;5000886;28;20041;-59
2023/01/30 02:20:15;;;;;;;34.60;21.45;;;4.40;99.90;;;;;;5001579;28;20570;-57
2023/01/30 02:23:08;;;;;;;40.15;23.23;;;4.40;99.90;;;;;;4998248;28;20026;-60
2023/01/30 02:25:53;;;;;;;36.63;21.60;;;4.40;99.90;;;;;;5000905;28;20082;-57
2023/01/30 02:28:30;;;;;;;32.80;20.88;;;4.40;99.90;;;;;;4999917;28;20109;-57
2023/01/30 02:31:01;;;;;;;35.40;21.45;;;4.40;99.90;;;;;;5015578;28;20539;-56
2023/01/30 02:33:40;;;;;;;35.03;20.83;;;4.50;99.90;;;;;;4999487;28;20500;-58
2023/01/30 02:36:24;;;;;;;30.83;20.83;;;4.50;99.90;;;;;;5001096;28;20097;-59
2023/01/30 02:39:08;;;;;;;30.50;20.05;;;4.50;99.90;;;;;;4999532;28;20121;-58
2023/01/30 02:41:44;;;;;;;28.10;19.30;;;4.50;99.90;;;;;;4999699;28;20044;-60
2023/01/30 02:44:40;;;;;;;31.67;18.55;;;4.60;99.90;;;;;;5000584;28;20405;-58
2023/01/30 02:47:12;;;;;;;27.25;17.27;;;4.60;99.90;;;;;;5000618;28;20021;-60
2023/01/30 02:49:43;;;;;;;28.23;17.67;;;4.60;99.90;;;;;;5000889;28;20033;-60
2023/01/30 02:52:11;;;;;;;29.60;18.20;;;4.70;99.90;;;;;;4999849;28;20396;-59
2023/01/30 02:54:36;;;;;;;27.40;16.67;;;4.70;99.90;;;;;;4999883;28;20018;-58
2023/01/30 02:57:02;;;;;;;25.58;15.85;;;4.70;99.90;;;;;;4998750;28;20038;-60
2023/01/30 02:59:39;;;;;;;25.33;16.38;;;4.70;99.90;;;;;;5001417;28;20041;-58
2023/01/30 03:02:26;;;;;;;20.25;14.45;;;4.70;99.90;;;;;;4999355;28;20482;-60
2023/01/30 03:05:05;;;;;;;;;;;4.80;99.90;;;;;;5000014;28;20030;-60
2023/01/30 03:07:40;;;;;;;22.05;14.88;;;4.80;99.90;;;;;;5001414;28;19921;-58
2023/01/30 03:10:15;;;;;;;21.95;14.98;;;4.80;99.90;;;;;;5000479;28;20033;-59
2023/01/30 03:13:03;;;;;;;20.55;14.43;;;4.80;99.90;;;;;;5000175;28;20492;-59
2023/01/30 03:15:44;;;;;;;21.73;13.48;;;4.90;99.90;;;;;;5000022;28;20026;-58
2023/01/30 03:18:10;;;;;;;21.05;14.60;;;4.80;99.90;;;;;;4999174;28;20037;-56
2023/01/30 03:20:40;;;;;;;23.13;14.27;;;4.80;99.90;;;;;;4999230;28;20037;-59
2023/01/30 03:23:06;;;;;;;27.95;14.18;;;4.90;99.90;;;;;;5000022;28;20026;-57
2023/01/30 03:25:34;;;;;;;19.73;12.73;;;4.90;99.90;;;;;;5000046;28;20062;-59
2023/01/30 03:28:02;;;;;;;21.50;13.23;;;4.90;99.90;;;;;;4998343;28;20030;-58
2023/01/30 03:30:27;;;;;;;22.98;14.15;;;5.00;99.90;;;;;;4999683;28;20411;-58
2023/01/30 03:32:53;;;;;;;20.33;12.40;;;4.90;99.90;;;;;;4997181;28;20038;-57
2023/01/30 03:35:19;;;;;;;18.00;12.75;;;5.00;99.90;;;;;;4999237;28;20038;-59
2023/01/30 03:37:45;;;;;;;19.80;11.88;;;5.00;99.90;;;;;;4998687;28;20026;-59
2023/01/30 03:40:13;;;;;;;18.30;11.65;;;5.00;99.90;;;;;;4997938;28;20030;-59
2023/01/30 03:42:39;;;;;;;22.90;10.82;;;5.00;99.90;;;;;;4999461;28;20117;-58
2023/01/30 03:45:05;;;;;;;18.58;11.80;;;5.00;99.90;;;;;;4998507;28;20101;-56
2023/01/30 03:47:30;;;;;;;17.88;10.48;;;5.00;99.90;;;;;;5000437;28;20125;-55
2023/01/30 03:49:56;;;;;;;15.73;9.80;;;5.00;99.90;;;;;;4999718;28;20025;-58
2023/01/30 03:52:21;;;;;;;14.48;10.50;;;5.10;99.90;;;;;;4999959;28;20033;-60
2023/01/30 03:54:47;;;;;;;17.38;10.43;;;5.10;99.90;;;;;;4999540;28;20018;-60
2023/01/30 03:57:12;;;;;;;17.67;9.95;;;5.10;99.90;;;;;;4998734;28;20039;-58
2023/01/30 03:59:38;;;;;;;12.02;8.48;;;5.10;99.90;;;;;;4999775;28;20424;-58
2023/01/30 04:02:03;;;;;;;11.20;6.70;;;5.10;99.90;;;;;;5000246;28;20029;-60
2023/01/30 04:04:29;;;;;;;7.50;4.35;;;5.10;99.90;;;;;;4999648;28;20193;-58
2023/01/30 04:06:54;;;;;;;8.82;4.50;;;5.00;99.90;;;;;;4999277;28;20037;-60
2023/01/30 04:09:20;;;;;;;11.30;5.57;;;5.00;99.90;;;;;;4998301;28;20026;-58
2023/01/30 04:11:46;;;;;;;8.07;4.00;;;4.90;99.90;;;;;;5000072;28;20026;-60
2023/01/30 04:14:12;;;;;;;7.63;3.42;;;4.90;99.90;;;;;;4997517;28;20173;-60
2023/01/30 04:16:37;;;;;;;6.47;1.90;;;4.90;99.90;;;;;;4998946;28;20113;-59
2023/01/30 04:19:03;;;;;;;4.18;1.70;;;4.80;99.90;;;;;;4998269;28;20499;-59
2023/01/30 04:21:28;;;;;;;3.47;1.65;;;4.70;99.90;;;;;;4996791;28;20038;-60
2023/01/30 04:23:54;;;;;;;4.03;1.67;;;4.70;99.90;;;;;;4999461;28;20030;-59
2023/01/30 04:26:22;;;;;;;5.50;1.67;;;4.70;99.90;;;;;;4998078;28;20030;-59
2023/01/30 04:28:48;;;;;;;4.90;1.27;;;4.70;99.90;;;;;;4996809;28;20026;-57
2023/01/30 04:31:13;;;;;;;3.80;1.25;;;4.70;99.90;;;;;;4999329;28;20040;-56
2023/01/30 04:33:39;;;;;;;3.42;1.20;;;4.60;99.90;;;;;;4999106;28;20030;-55
2023/01/30 04:36:07;;;;;;;6.47;1.00;;;4.60;99.90;;;;;;4997724;28;20034;-57
2023/01/30 04:38:33;;;;;;;4.97;1.13;;;4.60;99.90;;;;;;4997800;28;20041;-57
2023/01/30 04:40:59;;;;;;;6.50;1.25;;;4.50;99.90;;;;;;4999284;28;20060;-56
2023/01/30 04:43:27;;;;;;;5.32;1.25;;;4.50;99.90;;;;;;4997521;28;20428;-54
2023/01/30 04:45:53;;;;;;;5.90;1.73;;;4.50;99.90;;;;;;4997997;28;20105;-57
2023/01/30 04:48:20;;;;;;;6.88;1.92;;;4.50;99.90;;;;;;4998844;28;20038;-55
2023/01/30 04:50:51;;;;;;;4.63;1.25;;;4.50;99.90;;;;;;4998894;28;20039;-57
2023/01/30 04:53:19;;;;;;;8.38;1.58;;;4.50;99.90;;;;;;4997633;28;20026;-56
2023/01/30 04:55:45;;;;;;;7.97;1.73;;;4.50;99.90;;;;;;4997962;28;20036;-58
2023/01/30 04:58:11;;;;;;;4.97;1.73;;;4.50;99.90;;;;;;4997790;28;20029;-56
2023/01/30 05:00:36;;;;;;;5.97;1.95;;;4.50;99.90;;;;;;4998380;28;20096;-57
2023/01/30 05:03:02;;;;;;;4.53;1.58;;;4.50;99.90;;;;;;4998843;28;20017;-56
2023/01/30 05:05:28;;;;;;;4.63;1.73;;;4.50;99.90;;;;;;4996587;28;20608;-60
2023/01/30 05:07:54;;;;;;;4.75;1.80;;;4.50;99.90;;;;;;4998637;28;20650;-57
2023/01/30 05:10:20;;;;;;;4.53;1.40;;;4.50;99.90;;;;;;4998363;28;20033;-57
2023/01/30 05:12:45;;;;;;;6.60;1.00;;;4.50;99.90;;;;;;4998480;28;20027;-56
2023/01/30 05:15:12;;;;;;;6.30;1.48;;;4.50;99.90;;;;;;4998356;28;20036;-56
2023/01/30 05:17:38;;;;;;;9.65;2.08;;;4.60;99.90;;;;;;4997468;28;20595;-57
2023/01/30 05:20:06;;;;;;;6.95;1.73;;;4.60;99.90;;;;;;4997223;28;20030;-55
2023/01/30 05:22:31;;;;;;;7.80;1.90;;;4.60;99.90;;;;;;4997806;28;20096;-55
2023/01/30 05:24:57;;;;;;;11.90;2.13;;;4.60;99.90;;;;;;4998401;28;20057;-58
2023/01/30 05:27:23;;;;;;;5.50;1.70;;;4.60;99.90;;;;;;4997647;28;20050;-56
2023/01/30 05:29:48;;;;;;;3.65;2.17;;;4.70;99.90;;;;;;4997979;28;20042;-60
2023/01/30 05:32:15;;;;;;;9.88;2.90;;;4.70;99.90;;;;;;4998638;28;20168;-55
2023/01/30 05:34:41;;;;;;;8.85;2.45;;;4.70;99.90;;;;;;5001122;28;20127;-57
2023/01/30 05:37:06;;;;;;;11.70;1.83;;;4.70;99.90;;;;;;5001514;28;20030;-60
2023/01/30 05:39:32;;;;;;;14.88;3.05;;;4.70;99.90;;;;;;5002014;28;20046;-59
2023/01/30 05:41:57;;;;;;;12.30;2.28;;;4.70;99.90;;;;;;5001842;28;20034;-59
2023/01/30 05:44:23;;;;;;;7.60;2.03;;;4.70;99.90;;;;;;5001204;28;20453;-60
2023/01/30 05:46:49;;;;;;;15.32;3.03;;;4.70;99.90;;;;;;4998197;28;20460;-58
2023/01/30 05:49:15;;;;;;;9.30;2.20;;;4.70;99.90;;;;;;5001753;28;20034;-58
2023/01/30 05:51:40;;;;;;;15.35;2.85;;;4.70;99.90;;;;;;5001271;28;20222;-59
2023/01/30 05:54:06;;;;;;;20.38;3.95;;;4.70;99.90;;;;;;5002479;28;20477;-59
2023/01/30 05:56:32;;;;;;;12.88;2.92;;;4.70;99.90;;;;;;5001490;28;20034;-59
2023/01/30 05:58:59;;;;;;;14.52;2.05;;;4.60;99.90;;;;;;5001909;28;20018;-60
2023/01/30 06:01:25;;;;;;;10.23;2.17;;;4.60;99.90;;;;;;4999809;28;20041;-57
2023/01/30 06:03:51;;;;;;;11.23;1.30;;;4.60;99.90;;;;;;5002183;28;20018;-58
2023/01/30 06:06:17;;;;;;;14.82;2.42;;;4.60;99.90;;;;;;5000223;28;20069;-59
2023/01/30 06:08:43;;;;;;;5.25;1.80;;;4.60;99.90;;;;;;4998257;28;20057;-59
2023/01/30 06:11:12;;;;;;;7.60;1.63;;;4.60;99.90;;;;;;4997298;28;20035;-59
2023/01/30 06:13:38;;;;;;;8.85;2.03;;;4.60;99.90;;;;;;4999984;28;20440;-60
2023/01/30 06:16:06;;;;;;;17.70;3.22;;;4.50;99.90;;;;;;5001419;28;20408;-61
2023/01/30 06:18:31;;;;;;;12.48;2.58;;;4.50;99.90;;;;;;5001276;28;20042;-59
2023/01/30 06:20:57;;;;;;;11.57;2.55;;;4.40;99.90;;;;;;5000715;28;20026;-58
2023/01/30 06:23:23;;;;;;;11.30;2.47;;;4.40;99.90;;;;;;5001902;28;20034;-59
2023/01/30 06:25:50;;;;;;;13.45;2.75;;;4.40;99.90;;;;;;5001113;28;20516;-60
2023/01/30 06:28:16;;;;;;;7.07;1.88;;;4.40;99.90;;;;;;4999438;28;20029;-58
2023/01/30 06:30:42;;;;;;;11.98;3.90;;;4.30;99.90;;;;;;5000209;28;20064;-58
2023/01/30 06:33:08;;;;;;;16.92;3.20;;;4.30;99.90;;;;;;5000911;28;20125;-59
2023/01/30 06:35:36;;;;;;;11.20;2.63;;;4.30;99.90;;;;;;4999892;28;20473;-56
2023/01/30 06:38:02;;;;;;;6.57;1.48;;;4.30;99.90;;;;;;5000016;28;20025;-58
2023/01/30 06:40:27;;;;;;;13.15;1.92;;;4.30;99.90;;;;;;5000761;28;20511;-60
2023/01/30 06:42:53;;;;;;;12.48;3.13;;;4.30;99.90;;;;;;5000552;28;20527;-60
2023/01/30 06:45:19;;;;;;;11.25;2.50;;;4.30;99.90;;;;;;5000556;28;20524;-60
2023/01/30 06:47:46;;;;;;;7.95;2.10;;;4.30;99.90;;;;;;4999456;28;20050;-59
2023/01/30 06:50:13;;;;;;;9.73;2.35;;;4.20;99.90;;;;;;5001146;28;20060;-59
2023/01/30 06:52:42;;;;;;;22.13;2.83;;;4.30;99.90;;;;;;5000788;28;20026;-60
2023/01/30 06:55:12;;;;;;;8.88;2.17;;;4.30;99.90;;;;;;5000025;28;20411;-59
2023/01/30 06:57:38;;;;;;;8.98;2.03;;;4.30;99.90;;;;;;5000183;28;20088;-56
2023/01/30 07:00:05;;;;;;;13.50;2.90;;;4.30;99.90;;;;;;4999450;28;20022;-60
2023/01/30 07:02:34;;;;;;;12.32;2.45;;;4.30;99.90;;;;;;5000691;28;20517;-59
2023/01/30 07:05:00;;;;;;;12.38;3.13;;;4.30;99.90;;;;;;5000741;28;20481;-55
2023/01/30 07:07:26;;;;;;;14.73;3.15;;;4.30;99.90;;;;;;4999545;28;20034;-58
2023/01/30 07:09:51;;;;;;;11.05;2.53;;;4.30;99.90;;;;;;5000132;28;20408;-58
2023/01/30 07:12:17;;;;;;;16.38;2.85;;;4.20;99.90;;;;;;5000552;28;20030;-54
2023/01/30 07:14:42;;;;;;;10.10;2.10;;;4.20;99.90;;;;;;4998697;28;20139;-54
2023/01/30 07:17:08;;;;;;;8.20;2.97;;;4.20;99.90;;;;;;5000425;28;20041;-58
2023/01/30 07:19:33;;;;;;;14.63;3.13;;;4.20;99.90;;;;;;5000120;28;20105;-57
2023/01/30 07:21:59;;;;;;;12.25;2.90;;;4.20;99.90;;;;;;4998225;28;20033;-55
2023/01/30 07:24:24;;;;;;;11.52;3.22;;;4.20;99.90;;;;;;4999945;28;20041;-57
2023/01/30 07:26:50;;;;;;;13.00;2.60;;;4.20;99.90;;;;;;4999888;28;20030;-59
2023/01/30 07:29:15;;;;;;;9.55;2.45;;;4.20;99.90;;;;;;4998918;28;20045;-59
2023/01/30 07:31:41;;;;;;;12.35;2.63;;;4.20;99.90;;;;;;4999309;28;20109;-59
2023/01/30 07:34:07;;;;;;;9.77;1.70;;;4.20;99.90;;;;;;5000032;28;20027;-57
2023/01/30 07:36:33;;;;;;;10.90;2.40;;;4.20;99.90;;;;;;4998898;28;20026;-57
2023/01/30 07:39:00;;;;;;;12.52;2.53;;;4.20;99.90;;;;;;4998336;28;20053;-56
2023/01/30 07:41:26;;;;;;;12.63;3.17;;;4.20;99.90;;;;;;4999743;28;20026;-57
2023/01/30 07:43:52;;;;;;;13.98;3.55;;;4.30;99.90;;;;;;4998872;28;20042;-59
2023/01/30 07:46:17;;;;;;;17.20;3.55;;;4.30;99.90;;;;;;4998941;28;20036;-57
2023/01/30 07:48:44;;;;;;;12.80;3.13;;;4.30;99.90;;;;;;4999035;28;20115;-59
2023/01/30 07:51:10;;;;;;;12.25;2.78;;;4.30;99.90;;;;;;4999636;28;20030;-58
2023/01/30 07:53:35;;;;;;;19.50;4.38;;;4.30;99.90;;;;;;4998257;28;20041;-58
2023/01/30 07:56:08;;;;;;;17.42;3.80;;;4.30;99.90;;;;;;4997573;28;20042;-60
2023/01/30 07:58:34;;;;;;;22.15;4.38;;;4.30;99.90;;;;;;4999062;28;20504;-57
2023/01/30 08:01:00;;;;;;;21.30;3.80;;;4.30;99.90;;;;;;5000267;28;20033;-57
2023/01/30 08:03:25;;;;;;;19.10;3.53;;;4.30;99.90;;;;;;4997441;28;20151;-57
2023/01/30 08:05:52;;;;;;;28.08;5.25;;;4.30;99.90;;;;;;4999735;28;20026;-58
2023/01/30 08:08:18;;;;;;;17.58;4.38;;;4.30;99.90;;;;;;4998602;28;20121;-57
2023/01/30 08:10:44;;;;;;;19.13;3.55;;;4.40;99.90;;;;;;5000253;28;20440;-54
2023/01/30 08:13:09;;;;;;;15.45;3.60;;;4.30;99.90;;;;;;4998936;28;20029;-57
2023/01/30 08:15:35;;;;;;;24.98;4.28;;;4.30;99.90;;;;;;4999051;28;20042;-53
2023/01/30 08:18:01;;;;;;;17.75;3.60;;;4.30;99.90;;;;;;4999902;28;20057;-56
2023/01/30 08:20:27;;;;;;;17.25;4.03;;;4.20;99.90;;;;;;5000152;28;20033;-57
2023/01/30 08:22:53;;;;;;;16.45;4.20;;;4.20;99.90;;;;;;4999107;28;20057;-54
2023/01/30 08:25:19;;;;;;;22.75;4.00;;;4.30;99.90;;;;;;4998733;28;20018;-54
2023/01/30 08:27:44;;;;;;;27.52;4.38;;;4.20;99.90;;;;;;4998482;28;20460;-56
2023/01/30 08:30:11;;;;;;;18.15;3.80;;;4.30;99.90;;;;;;4999654;28;20091;-57
2023/01/30 08:32:36;;;;;;;19.02;4.38;;;4.20;99.90;;;;;;4997948;28;20142;-59
2023/01/30 08:35:02;;;;;;;27.17;4.82;;;4.30;99.90;;;;;;4998471;28;20037;-58
2023/01/30 08:37:27;;;;;;;25.77;4.68;;;4.30;99.90;;;;;;4999207;28;20093;-60
2023/01/30 08:39:53;;;;;;;20.88;5.10;;;4.30;99.90;;;;;;4998060;28;20101;-56
2023/01/30 08:42:19;;;;;;;21.08;5.57;;;4.40;99.90;;;;;;4999504;28;20027;-58
2023/01/30 08:44:44;;;;;;;22.75;4.38;;;4.40;99.90;;;;;;4997662;28;20141;-57
2023/01/30 08:47:10;;;;;;;23.30;6.05;;;4.40;99.90;;;;;;4999088;28;20050;-57
2023/01/30 08:49:35;;;;;;;17.10;5.20;;;4.40;99.90;;;;;;4999326;28;20400;-57
2023/01/30 08:52:01;;;;;;;33.78;5.63;;;4.40;99.90;;;;;;4998423;28;20030;-58
2023/01/30 08:54:27;;;;;;;31.00;5.47;;;4.50;99.90;;;;;;4999456;28;20033;-59
2023/01/30 08:56:52;;;;;;;25.30;5.28;;;4.60;99.90;;;;;;4998528;28;20050;-54
2023/01/30 08:59:18;;;;;;;25.63;4.50;;;4.70;99.90;;;;;;4999619;28;20105;-55
2023/01/30 09:01:43;;;;;;;25.38;4.88;;;4.80;99.90;;;;;;4997657;28;20377;-59
2023/01/30 09:04:09;;;;;;;28.77;6.43;;;4.80;99.90;;;;;;4998169;28;20025;-60
2023/01/30 09:06:34;;;;;;;30.38;6.05;;;4.90;99.90;;;;;;5002010;28;20496;-55
2023/01/30 09:09:00;;;;;;;30.73;5.72;;;4.90;99.90;;;;;;5003549;28;20416;-58
2023/01/30 09:11:26;;;;;;;25.10;5.32;;;4.90;99.90;;;;;;5003263;28;20069;-58
2023/01/30 09:13:52;;;;;;;26.30;5.32;;;4.90;99.90;;;;;;5002915;28;20508;-57
2023/01/30 09:16:17;;;;;;;27.35;5.90;;;4.90;99.90;;;;;;5002675;28;20030;-59
2023/01/30 09:18:44;;;;;;;33.80;5.30;;;5.00;99.90;;;;;;5003145;28;20061;-59
2023/01/30 09:21:11;;;;;;;29.48;5.30;;;5.00;99.90;;;;;;5002619;28;20022;-59
2023/01/30 09:23:37;;;;;;;20.83;5.30;;;5.10;99.90;;;;;;5002467;28;20022;-59
2023/01/30 09:26:03;;;;;;;20.20;5.72;;;5.20;99.90;;;;;;5001068;28;20021;-60
2023/01/30 09:28:29;;;;;;;33.53;4.93;;;5.20;99.90;;;;;;5002857;28;20027;-58
2023/01/30 09:30:59;;;;;;;19.98;4.72;;;5.30;99.90;;;;;;5002721;28;20060;-58
2023/01/30 09:33:25;;;;;;;23.75;5.22;;;5.50;99.90;;;;;;5002677;28;20026;-59
2023/01/30 09:35:51;;;;;;;22.77;5.05;;;5.50;99.90;;;;;;5000955;28;20405;-60
2023/01/30 09:38:17;;;;;;;16.52;5.03;;;5.60;99.90;;;;;;5002056;28;20026;-57
2023/01/30 09:41:03;;;;;;;23.27;6.00;;;5.60;99.90;;;;;;5002440;28;20026;-55
2023/01/30 09:43:50;;;;;;;22.73;4.43;;;5.50;99.90;;;;;;4987359;28;20077;-58
2023/01/30 09:46:41;;;;;;;25.15;5.40;;;5.60;99.90;;;;;;5001105;28;20026;-58
2023/01/30 09:49:40;;;;;;;25.92;5.25;;;5.60;99.90;;;;;;5001554;28;20152;-60
2023/01/30 09:52:14;;;;;;;17.05;4.53;;;5.70;99.90;;;;;;5001924;28;20022;-59
2023/01/30 09:54:43;;;;;;;19.10;5.03;;;5.70;99.90;;;;;;5002193;28;20042;-57
2023/01/30 09:57:20;;;;;;;17.15;4.10;;;5.70;99.90;;;;;;4998367;28;20026;-59
2023/01/30 09:59:56;;;;;;;17.88;3.83;;;5.60;99.90;;;;;;5001455;28;20432;-54
2023/01/30 10:02:28;;;;;;;14.70;3.58;;;5.50;99.90;;;;;;5001429;28;20113;-58
2023/01/30 10:04:55;;;;;;;24.75;4.15;;;5.40;99.90;;;;;;5001706;28;20033;-58
2023/01/30 10:07:36;;;;;;;12.82;3.63;;;5.30;99.90;;;;;;4999818;28;20470;-59
2023/01/30 10:10:18;;;;;;;19.00;3.50;;;5.30;99.90;;;;;;5000089;28;20036;-56
2023/01/30 10:13:27;;;;;;;14.02;3.50;;;5.20;99.90;;;;;;5001402;28;20033;-58
2023/01/30 10:16:29;;;;;;;18.02;3.70;;;5.20;99.90;;;;;;4999314;28;20041;-57
2023/01/30 10:19:16;;;;;;;12.05;3.15;;;5.30;99.90;;;;;;4984853;28;20124;-58
2023/01/30 10:21:58;;;;;;;17.10;3.20;;;5.40;99.90;;;;;;5000946;28;20042;-59
2023/01/30 10:24:48;;;;;;;16.20;3.58;;;5.50;99.90;;;;;;5001252;28;20030;-59
2023/01/30 10:27:16;;;;;;;17.88;3.95;;;5.50;99.90;;;;;;5000836;28;20030;-57
2023/01/30 10:29:48;;;;;;;12.43;3.03;;;5.50;99.90;;;;;;4999006;28;20033;-59
2023/01/30 10:32:18;;;;;;;23.10;3.40;;;5.50;99.90;;;;;;5000831;28;20026;-58
2023/01/30 10:34:56;;;;;;;19.50;3.58;;;5.60;99.90;;;;;;5000129;28;20019;-60
2023/01/30 10:37:34;;;;;;;19.70;3.70;;;5.80;99.90;;;;;;5000578;28;20048;-60
2023/01/30 10:40:03;;;;;;;11.80;3.22;;;5.90;99.90;;;;;;4997395;28;20018;-59
2023/01/30 10:42:37;;;;;;;18.77;4.28;;;5.90;99.90;;;;;;4999555;28;20022;-59
2023/01/30 10:45:29;;;;;;;16.65;3.45;;;5.90;99.90;;;;;;4999125;28;20148;-59
2023/01/30 10:48:04;;;;;;;13.50;3.40;;;6.00;99.90;;;;;;4999982;28;20030;-59
2023/01/30 10:51:10;;;;;;;20.75;4.65;;;6.00;99.90;;;;;;5000091;28;20026;-57
2023/01/30 10:53:52;;;;;;;17.17;4.68;;;5.90;99.90;;;;;;5000947;28;20096;-59
2023/01/30 10:56:27;;;;;;;21.08;3.63;;;5.80;99.90;;;;;;5000468;28;20117;-60
2023/01/30 10:59:13;;;;;;;16.50;3.78;;;5.60;99.90;;;;;;5000599;28;20113;-60
2023/01/30 11:01:58;;;;;;;9.43;1.70;;;5.30;99.90;;;;;;4998743;28;20096;-59
2023/01/30 11:04:35;;;;;;;6.05;1.42;;;5.10;99.90;;;;;;5000351;28;20030;-57
2023/01/30 11:07:01;;;;;;;;;;;4.80;99.90;;;;;;4998964;28;20128;-58
2023/01/30 11:09:44;;;;;;;4.85;1.10;;;4.50;99.90;;;;;;5000758;28;19912;-58
2023/01/30 11:12:11;;;;;;;2.13;0.70;;;4.30;99.90;;;;;;5000802;28;20030;-56
2023/01/30 11:14:50;;;;;;;0.50;0.40;;;4.20;99.90;;;;;;5000344;28;20034;-59
2023/01/30 11:17:17;;;;;;;3.80;0.90;;;4.10;99.90;;;;;;5000058;28;20084;-58
2023/01/30 11:19:43;;;;;;;2.58;0.82;;;4.10;99.90;;;;;;5001012;28;20025;-55
2023/01/30 11:22:13;;;;;;;8.70;1.13;;;4.10;99.90;;;;;;4998188;28;20101;-59
2023/01/30 11:24:44;;;;;;;2.30;0.93;;;4.10;99.90;;;;;;5000140;28;20497;-59
2023/01/30 11:27:17;;;;;;;9.60;1.95;;;4.10;99.90;;;;;;4998394;28;20057;-57
2023/01/30 11:29:43;;;;;;;7.35;1.45;;;4.10;99.90;;;;;;5000408;28;20092;-58
2023/01/30 11:32:18;;;;;;;6.78;1.08;;;4.10;99.90;;;;;;5000182;28;20034;-59
2023/01/30 11:34:59;;;;;;;6.03;1.48;;;4.00;99.90;;;;;;4998634;28;20104;-60
2023/01/30 11:37:38;;;;;;;9.05;1.70;;;4.00;99.90;;;;;;4999716;28;20124;-57
2023/01/30 11:40:16;;;;;;;5.18;1.55;;;4.10;99.90;;;;;;4999386;28;20407;-60
2023/01/30 11:42:45;;;;;;;9.43;2.22;;;4.10;99.90;;;;;;5000017;28;20025;-58
2023/01/30 11:45:11;;;;;;;11.32;1.75;;;4.20;99.90;;;;;;4998624;28;20516;-59
2023/01/30 11:47:45;;;;;;;8.32;1.80;;;4.30;99.90;;;;;;4999203;28;20045;-56
2023/01/30 11:50:18;;;;;;;9.05;1.77;;;4.30;99.90;;;;;;4998235;28;20042;-58
2023/01/30 11:52:45;;;;;;;8.65;2.47;;;4.40;99.90;;;;;;4998602;28;20378;-60
2023/01/30 11:55:14;;;;;;;6.72;2.05;;;4.40;99.90;;;;;;4998555;28;20033;-57
2023/01/30 11:57:43;;;;;;;14.05;2.38;;;4.50;99.90;;;;;;5000264;28;20084;-57
2023/01/30 12:00:21;;;;;;;16.08;2.40;;;4.50;99.90;;;;;;4998652;28;20105;-57
2023/01/30 12:02:48;;;;;;;15.18;3.33;;;4.60;99.90;;;;;;4998926;28;20034;-60
2023/01/30 12:05:28;;;;;;;8.52;2.78;;;4.80;99.90;;;;;;4998768;28;20022;-59
2023/01/30 12:08:19;;;;;;;16.30;3.20;;;4.90;99.90;;;;;;4999257;28;20033;-58
2023/01/30 12:10:52;;;;;;;13.55;3.08;;;5.00;99.90;;;;;;4998428;28;20065;-59
2023/01/30 12:13:23;;;;;;;10.60;2.08;;;4.90;99.90;;;;;;5000852;28;20432;-57
2023/01/30 12:15:56;;;;;;;14.07;2.45;;;4.80;99.90;;;;;;4996905;28;20026;-59
2023/01/30 12:18:30;;;;;;;13.60;2.47;;;4.70;99.90;;;;;;4999816;28;20501;-57
2023/01/30 12:21:05;;;;;;;9.25;1.65;;;4.70;99.90;;;;;;4999590;28;20041;-59
2023/01/30 12:23:51;;;;;;;10.90;2.50;;;4.50;99.90;;;;;;4999763;28;20027;-60
2023/01/30 12:26:24;;;;;;;7.00;2.03;;;4.50;99.90;;;;;;4999421;28;20018;-59
2023/01/30 12:29:04;;;;;;;5.75;1.52;;;4.40;99.90;;;;;;4998412;28;20126;-60
2023/01/30 12:31:40;;;;;;;5.88;1.52;;;4.40;99.90;;;;;;4998239;28;20558;-59
2023/01/30 12:34:08;;;;;;;3.63;0.98;;;4.30;99.90;;;;;;4997545;28;20503;-60
2023/01/30 12:36:49;;;;;;;6.78;1.55;;;4.30;99.90;;;;;;4998441;28;20030;-59
2023/01/30 12:39:38;;;;;;;3.83;1.42;;;4.20;99.90;;;;;;4997973;28;20611;-60
2023/01/30 12:42:19;;;;;;;7.65;1.65;;;4.20;99.90;;;;;;4997856;28;20108;-59
2023/01/30 12:44:50;;;;;;;8.10;1.95;;;4.10;99.90;;;;;;4997798;28;20026;-59
2023/01/30 12:47:53;;;;;;;5.78;0.95;;;4.10;99.90;;;;;;4998705;28;20665;-59
2023/01/30 12:50:25;;;;;;;8.52;2.40;;;4.10;99.90;;;;;;4998450;28;20492;-59
2023/01/30 12:52:57;;;;;;;15.20;2.25;;;4.20;99.90;;;;;;4998793;28;20030;-57
2023/01/30 12:55:49;;;;;;;9.55;2.17;;;4.30;99.90;;;;;;4997915;28;20038;-60
2023/01/30 12:58:21;;;;;;;17.20;3.33;;;4.40;99.90;;;;;;4974856;28;20120;-59
2023/01/30 13:01:15;;;;;;;14.50;3.13;;;4.40;99.90;;;;;;4998614;28;20022;-58
2023/01/30 13:04:09;;;;;;;16.77;3.30;;;4.60;99.90;;;;;;4997138;28;20062;-56
2023/01/30 13:06:48;;;;;;;15.82;3.33;;;4.60;99.90;;;;;;4998492;28;20029;-59
2023/01/30 13:09:25;;;;;;;14.57;3.28;;;4.70;99.90;;;;;;4998546;28;20072;-59
2023/01/30 13:12:04;;;;;;;17.38;3.03;;;4.80;99.90;;;;;;4997688;28;20042;-59